Time;durP1;ratioP1;P1;durP2;ratioP2;P2;SDS_P1;SDS_P2;PMS_P1;PMS_P2;Temp;Humidity;BMP_temperature;BMP_pressure;BME280_temperature;BME280_humidity;BME280_pressure;Samples;Min_cycle;Max_cycle;Signal;HPM_P1;HPM_P2
2023/12/10 00:02:20;;;;;;;30.10;6.03;;;;;;;9.08;76.48;99800.69;5070692;28;20071;-64
2023/12/10 00:04:48;;;;;;;23.73;5.10;;;;;;;9.10;76.32;99800.41;5079881;28;20059;-64
2023/12/10 00:07:14;;;;;;;32.67;6.57;;;;;;;9.12;76.67;99811.22;5071789;28;20032;-65
2023/12/10 00:09:39;;;;;;;29.10;5.55;;;;;;;9.12;75.47;99805.66;5084027;28;20039;-64
2023/12/10 00:12:05;;;;;;;31.45;5.97;;;;;;;9.08;75.67;99803.47;5073771;28;20064;-65
2023/12/10 00:14:30;;;;;;;32.60;6.32;;;;;;;9.08;75.37;99806.22;5080794;28;20025;-65
2023/12/10 00:16:56;;;;;;;28.35;5.40;;;;;;;9.06;75.10;99802.88;5068904;28;20398;-64
2023/12/10 00:19:21;;;;;;;32.60;5.80;;;;;;;9.08;75.76;99806.22;5075450;28;20742;-65
2023/12/10 00:21:47;;;;;;;24.80;4.80;;;;;;;9.11;75.50;99810.38;5084458;28;20086;-65
2023/12/10 00:24:12;;;;;;;34.45;6.15;;;;;;;9.12;75.60;99813.97;5071079;28;20024;-65
2023/12/10 00:26:38;;;;;;;26.02;6.10;;;;;;;9.11;75.25;99815.91;5071784;28;20040;-65
2023/12/10 00:29:03;;;;;;;31.60;6.20;;;;;;;9.12;74.75;99823.16;5070364;28;20108;-65
2023/12/10 00:31:34;;;;;;;25.88;4.93;;;;;;;9.10;75.08;99823.41;5069618;28;20024;-65
2023/12/10 00:33:59;;;;;;;28.80;6.30;;;;;;;9.15;75.32;99832.81;5034663;28;1108310;-64
2023/12/10 00:36:25;;;;;;;26.63;5.72;;;;;;;9.15;74.26;99838.38;5082487;28;20041;-65
2023/12/10 00:38:50;;;;;;;29.25;6.20;;;;;;;9.15;74.43;99827.28;5090287;28;20032;-65
2023/12/10 00:41:15;;;;;;;26.77;5.60;;;;;;;9.14;75.25;99842.25;5074128;28;20107;-65
2023/12/10 00:43:41;;;;;;;29.45;5.65;;;;;;;9.12;74.68;99833.34;5079574;28;20392;-65
2023/12/10 00:46:10;;;;;;;27.92;5.35;;;;;;;9.12;75.27;99830.59;5086552;28;20078;-65
2023/12/10 00:48:37;;;;;;;23.58;4.75;;;;;;;9.09;74.43;99834.75;5089280;28;20054;-65
2023/12/10 00:51:02;;;;;;;29.25;5.78;;;;;;;9.08;74.74;99839.44;5081169;28;20420;-65
2023/12/10 00:53:28;;;;;;;21.05;4.68;;;;;;;9.12;75.01;99847.19;5082478;28;20123;-64
2023/12/10 00:55:54;;;;;;;26.55;5.47;;;;;;;9.13;74.81;99846.13;5091027;28;20382;-64
2023/12/10 00:58:19;;;;;;;20.80;4.68;;;;;;;9.08;74.09;99850.53;5080190;28;20081;-65
2023/12/10 01:00:44;;;;;;;27.15;4.65;;;;;;;9.10;74.76;99853.84;5069441;28;20464;-65
2023/12/10 01:03:10;;;;;;;25.17;4.60;;;;;;;9.09;74.47;99865.19;5077090;28;20113;-65
2023/12/10 01:05:36;;;;;;;25.13;5.75;;;;;;;9.09;74.54;99862.44;5076023;28;20023;-65
2023/12/10 01:08:04;;;;;;;25.58;4.93;;;;;;;9.09;75.10;99867.97;5079666;28;20039;-64
2023/12/10 01:10:32;;;;;;;27.00;5.88;;;;;;;9.06;74.69;99868.50;5084498;28;20111;-65
2023/12/10 01:12:57;;;;;;;27.75;5.03;;;;;;;9.05;75.48;99864.91;5070488;28;20025;-64
2023/12/10 01:15:32;;;;;;;24.27;4.97;;;;;;;9.07;75.16;99865.44;5069816;28;20043;-66
2023/12/10 01:18:00;;;;;;;26.23;4.47;;;;;;;9.12;75.25;99880.41;5074239;28;20495;-65
2023/12/10 01:20:30;;;;;;;23.90;5.55;;;;;;;9.11;75.75;99868.50;5071806;28;20029;-65
2023/12/10 01:22:56;;;;;;;23.92;5.75;;;;;;;9.13;75.79;99868.25;5080727;28;20039;-65
2023/12/10 01:25:22;;;;;;;28.73;5.50;;;;;;;9.14;75.20;99875.47;5081221;28;20052;-65
2023/12/10 01:27:47;;;;;;;24.73;5.00;;;;;;;9.12;74.27;99872.97;5085565;28;20470;-65
2023/12/10 01:30:13;;;;;;;21.65;5.07;;;;;;;9.11;74.99;99882.34;5081491;28;20034;-65
2023/12/10 01:32:40;;;;;;;22.75;5.07;;;;;;;9.11;75.12;99874.06;5092183;28;20027;-65
2023/12/10 01:35:05;;;;;;;26.65;5.25;;;;;;;9.10;74.41;99889.00;5088170;28;20048;-65
2023/12/10 01:37:31;;;;;;;23.30;4.95;;;;;;;9.11;75.16;99893.44;5086049;28;20021;-65
2023/12/10 01:39:56;;;;;;;24.92;4.57;;;;;;;9.13;75.34;99899.56;5084833;28;20032;-65
2023/12/10 01:42:21;;;;;;;25.13;5.03;;;;;;;9.13;74.83;99909.78;5091487;28;20040;-65
2023/12/10 01:44:47;;;;;;;25.75;5.18;;;;;;;9.13;75.28;99913.38;5090264;28;20056;-65
2023/12/10 01:47:13;;;;;;;23.73;4.95;;;;;;;9.08;75.74;99925.25;5088504;28;20036;-65
2023/12/10 01:49:39;;;;;;;19.98;4.07;;;;;;;9.07;74.78;99920.81;5073332;28;20096;-64
2023/12/10 01:52:05;;;;;;;22.02;4.70;;;;;;;9.04;75.49;99915.81;5084036;28;20466;-64
2023/12/10 01:54:30;;;;;;;28.27;4.68;;;;;;;9.06;75.92;99910.00;5092549;28;20035;-65
2023/12/10 01:56:56;;;;;;;28.75;4.80;;;;;;;9.04;75.66;99918.59;5087102;28;20067;-65
2023/12/10 01:59:22;;;;;;;22.73;5.47;;;;;;;9.02;75.80;99920.78;5081879;28;20040;-65
2023/12/10 02:01:48;;;;;;;20.92;4.55;;;;;;;9.02;75.80;99929.09;5093306;28;20032;-65
2023/12/10 02:04:16;;;;;;;20.50;4.50;;;;;;;8.97;75.70;99929.06;5077144;28;20039;-65
2023/12/10 02:06:45;;;;;;;23.85;4.63;;;;;;;9.02;75.83;99940.16;5087042;28;20031;-65
2023/12/10 02:09:13;;;;;;;17.73;4.05;;;;;;;8.99;75.71;99928.78;5087430;28;20141;-65
2023/12/10 02:11:39;;;;;;;24.88;4.95;;;;;;;8.95;75.54;99928.47;5085698;28;20035;-65
2023/12/10 02:14:08;;;;;;;21.67;4.38;;;;;;;8.95;75.62;99941.47;5079683;28;20064;-64
2023/12/10 02:16:33;;;;;;;23.20;4.50;;;;;;;8.95;76.40;99928.47;5084374;28;20063;-65
2023/12/10 02:18:59;;;;;;;22.83;4.20;;;;;;;8.95;76.30;99928.47;5090952;28;20406;-64
2023/12/10 02:21:25;;;;;;;22.33;5.18;;;;;;;8.93;76.47;99930.69;5075611;28;20033;-65
2023/12/10 02:23:56;;;;;;;19.90;4.10;;;;;;;8.93;76.33;99918.78;5074637;28;20551;-64
2023/12/10 02:26:21;;;;;;;20.67;4.85;;;;;;;8.90;75.46;99935.91;5080606;28;20502;-65
2023/12/10 02:28:47;;;;;;;20.48;4.15;;;;;;;8.89;76.24;99937.03;5087448;28;20028;-65
2023/12/10 02:31:17;;;;;;;15.95;3.72;;;;;;;8.90;75.60;99933.97;5087752;28;20035;-65
2023/12/10 02:33:42;;;;;;;17.17;3.90;;;;;;;8.91;75.43;99938.41;5092176;28;20031;-65
2023/12/10 02:36:08;;;;;;;25.70;4.93;;;;;;;8.86;75.47;99938.38;5087427;28;20049;-65
2023/12/10 02:38:33;;;;;;;20.60;4.57;;;;;;;8.85;75.66;99939.47;5070989;28;20043;-65
2023/12/10 02:40:59;;;;;;;22.30;3.88;;;;;;;8.88;75.88;99950.00;5074589;28;20074;-65
2023/12/10 02:43:24;;;;;;;25.85;4.20;;;;;;;8.89;74.92;99939.78;5083494;28;20032;-65
2023/12/10 02:45:50;;;;;;;25.00;4.38;;;;;;;8.87;74.64;99945.56;5082677;28;20464;-64
2023/12/10 02:48:21;;;;;;;19.02;3.90;;;;;;;8.90;74.97;99958.06;5080395;28;20032;-64
2023/12/10 02:50:50;;;;;;;16.65;4.05;;;;;;;8.90;74.51;99935.91;5083460;28;20039;-64
2023/12/10 02:53:16;;;;;;;20.73;4.07;;;;;;;8.85;73.66;99954.16;5072994;28;20055;-65
2023/12/10 02:55:41;;;;;;;22.42;4.20;;;;;;;8.89;74.66;99950.84;5072305;28;20063;-64
2023/12/10 02:58:06;;;;;;;24.83;4.32;;;;;;;8.91;74.57;99951.41;5091539;28;20032;-65
2023/12/10 03:00:32;;;;;;;17.83;4.05;;;;;;;8.87;73.67;99944.72;5083207;28;20036;-64
2023/12/10 03:02:57;;;;;;;27.25;4.72;;;;;;;8.86;73.88;99966.03;5089249;28;20032;-64
2023/12/10 03:05:23;;;;;;;20.65;3.90;;;;;;;8.88;73.92;99965.78;5090015;28;20030;-65
2023/12/10 03:07:49;;;;;;;21.60;4.68;;;;;;;8.89;73.77;99968.28;5087891;28;20028;-64
2023/12/10 03:10:14;;;;;;;21.65;4.60;;;;;;;8.90;73.61;99963.59;5092350;28;20081;-65
2023/12/10 03:12:39;;;;;;;21.08;3.92;;;;;;;8.91;73.30;99985.44;5079846;28;20024;-65
2023/12/10 03:15:05;;;;;;;21.95;4.63;;;;;;;8.93;73.06;99974.97;5081004;28;20059;-64
2023/12/10 03:17:31;;;;;;;20.75;4.25;;;;;;;8.95;73.13;100007.91;5074375;28;20494;-65
2023/12/10 03:19:56;;;;;;;25.85;4.72;;;;;;;8.97;72.87;99991.88;5085601;28;20055;-65
2023/12/10 03:22:21;;;;;;;20.00;4.65;;;;;;;9.00;72.71;99977.50;5085189;28;20054;-65
2023/12/10 03:24:47;;;;;;;18.50;4.85;;;;;;;9.00;72.66;99980.25;5092128;28;20035;-65
2023/12/10 03:27:12;;;;;;;20.15;4.57;;;;;;;9.00;72.42;100008.81;5089440;28;20032;-64
2023/12/10 03:29:37;;;;;;;25.83;4.20;;;;;;;8.98;72.11;99993.53;5091513;28;20031;-64
2023/12/10 03:32:03;;;;;;;23.25;5.20;;;;;;;8.96;72.59;100006.78;5085879;28;20027;-65
2023/12/10 03:34:28;;;;;;;24.17;4.72;;;;;;;8.99;73.00;100003.50;5089853;28;20070;-64
2023/12/10 03:36:54;;;;;;;21.08;4.53;;;;;;;9.00;72.51;100011.56;5083890;28;20028;-65
2023/12/10 03:39:19;;;;;;;19.42;4.40;;;;;;;9.01;72.20;100012.41;5090149;28;20470;-65
2023/12/10 03:41:45;;;;;;;21.73;4.68;;;;;;;9.03;72.36;100011.03;5090322;28;20081;-65
2023/12/10 03:44:10;;;;;;;24.92;4.97;;;;;;;9.01;72.27;100016.00;5080002;28;20074;-65
2023/12/10 03:46:35;;;;;;;23.00;4.47;;;;;;;8.99;71.86;100020.13;5091607;28;20027;-65
2023/12/10 03:49:01;;;;;;;18.73;3.85;;;;;;;9.01;70.94;100010.47;5087845;28;20027;-65
2023/12/10 03:51:26;;;;;;;19.85;3.95;;;;;;;9.02;70.79;100009.34;5071135;28;20470;-65
2023/12/10 03:53:51;;;;;;;17.52;3.83;;;;;;;9.00;70.32;100002.41;5074182;28;20029;-65
2023/12/10 03:56:17;;;;;;;22.10;4.30;;;;;;;9.04;70.76;100015.47;5073077;28;20066;-65
2023/12/10 03:58:42;;;;;;;23.10;3.90;;;;;;;9.05;70.88;100024.63;5084145;28;20477;-64
2023/12/10 04:01:08;;;;;;;20.33;4.18;;;;;;;9.08;71.35;100026.88;5080094;28;20047;-65
2023/12/10 04:03:34;;;;;;;18.33;4.22;;;;;;;9.09;70.89;100026.59;5088257;28;20048;-64
2023/12/10 04:06:00;;;;;;;19.95;4.15;;;;;;;9.09;70.31;100028.53;5089795;28;20038;-64
2023/12/10 04:08:25;;;;;;;16.45;3.88;;;;;;;9.07;70.30;100041.78;5079009;28;20098;-64
2023/12/10 04:10:51;;;;;;;17.00;3.75;;;;;;;9.09;69.97;100029.34;5082708;28;20020;-64
2023/12/10 04:13:16;;;;;;;17.15;3.85;;;;;;;9.07;69.64;100041.78;5076108;28;20499;-65
2023/12/10 04:15:44;;;;;;;19.10;3.90;;;;;;;9.05;69.57;100021.84;5082595;28;20032;-64
2023/12/10 04:18:10;;;;;;;20.02;4.40;;;;;;;9.05;69.42;100044.00;5077014;28;20028;-64
2023/12/10 04:20:36;;;;;;;28.02;4.68;;;;;;;9.02;69.56;100045.34;5076633;28;20030;-64
2023/12/10 04:23:02;;;;;;;22.17;4.50;;;;;;;9.03;69.67;100055.31;5075991;28;20364;-65
2023/12/10 04:25:28;;;;;;;21.67;3.88;;;;;;;9.02;69.92;100053.66;5089532;28;20415;-65
2023/12/10 04:27:54;;;;;;;19.90;4.53;;;;;;;9.06;69.76;100065.88;5073896;28;20110;-65
2023/12/10 04:30:19;;;;;;;19.17;3.47;;;;;;;9.07;69.29;100070.28;5090163;28;20127;-65
2023/12/10 04:32:45;;;;;;;16.55;3.83;;;;;;;9.08;69.34;100066.44;5071840;28;20055;-65
2023/12/10 04:35:11;;;;;;;20.77;3.67;;;;;;;9.10;69.49;100085.56;5085716;28;20153;-65
2023/12/10 04:37:36;;;;;;;19.17;3.35;;;;;;;9.09;68.74;100070.88;5075993;28;20037;-65
2023/12/10 04:40:11;;;;;;;21.98;4.05;;;;;;;9.11;68.73;100087.22;5083096;28;20020;-65
2023/12/10 04:42:39;;;;;;;20.13;3.78;;;;;;;9.12;69.06;100088.91;5073297;28;20067;-65
2023/12/10 04:45:06;;;;;;;24.33;4.75;;;;;;;9.13;68.68;100111.88;5090249;28;20483;-65
2023/12/10 04:47:32;;;;;;;19.23;4.22;;;;;;;9.14;68.16;100091.41;5085146;28;20106;-65
2023/12/10 04:49:58;;;;;;;23.95;3.90;;;;;;;9.16;68.77;100090.06;5087857;28;20467;-65
2023/12/10 04:52:23;;;;;;;20.77;4.10;;;;;;;9.17;68.05;100111.09;5075940;28;20032;-65
2023/12/10 04:54:48;;;;;;;21.60;4.10;;;;;;;9.19;68.34;100111.66;5082946;28;20031;-64
2023/12/10 04:57:14;;;;;;;19.63;3.67;;;;;;;9.18;68.07;100117.47;5091200;28;20035;-65
2023/12/10 04:59:39;;;;;;;19.98;4.57;;;;;;;9.19;67.92;100110.81;5084641;28;20028;-65
2023/12/10 05:02:04;;;;;;;22.52;5.20;;;;;;;9.18;67.58;100131.31;5084822;28;20031;-65
2023/12/10 05:04:30;;;;;;;17.92;4.50;;;;;;;9.16;67.56;100128.81;5083671;28;20024;-65
2023/12/10 05:06:55;;;;;;;21.23;3.92;;;;;;;9.17;68.39;100143.50;5078447;28;20499;-64
2023/12/10 05:09:20;;;;;;;19.73;3.45;;;;;;;9.16;67.91;100150.13;5094016;28;20378;-65
2023/12/10 05:11:46;;;;;;;18.65;4.22;;;;;;;9.13;67.98;100145.94;5089881;28;20085;-64
2023/12/10 05:14:11;;;;;;;16.05;4.13;;;;;;;9.14;68.06;100153.16;5080931;28;20037;-64
2023/12/10 05:16:36;;;;;;;19.52;4.20;;;;;;;9.14;67.83;100147.59;5079764;28;20035;-65
2023/12/10 05:19:02;;;;;;;20.15;3.92;;;;;;;9.16;67.82;100166.75;5082245;28;20024;-65
2023/12/10 05:21:27;;;;;;;23.35;5.03;;;;;;;9.16;67.59;100161.22;5093276;28;20138;-65
2023/12/10 05:23:52;;;;;;;19.00;4.05;;;;;;;9.16;67.52;100167.56;5074059;28;20387;-65
2023/12/10 05:26:21;;;;;;;20.38;3.70;;;;;;;9.18;67.39;100159.00;5073566;28;20024;-65
2023/12/10 05:28:46;;;;;;;27.83;4.00;;;;;;;9.17;67.33;100173.94;5089818;28;20364;-64
2023/12/10 05:31:11;;;;;;;19.30;3.88;;;;;;;9.20;67.94;100178.97;5079853;28;20057;-66
2023/12/10 05:33:40;;;;;;;15.23;3.60;;;;;;;9.19;67.83;100178.09;5093495;28;20158;-65
2023/12/10 05:36:06;;;;;;;17.70;4.05;;;;;;;9.19;67.81;100191.13;5084223;28;20522;-65
2023/12/10 05:38:31;;;;;;;18.00;3.83;;;;;;;9.22;67.99;100193.38;5083963;28;20090;-65
2023/12/10 05:40:56;;;;;;;21.52;3.72;;;;;;;9.21;67.69;100223.00;5092140;28;20520;-64
2023/12/10 05:43:22;;;;;;;25.80;4.20;;;;;;;9.26;67.49;100211.13;5093066;28;20418;-64
2023/12/10 05:45:47;;;;;;;23.90;4.32;;;;;;;9.25;67.62;100224.16;5092717;28;20036;-65
2023/12/10 05:48:12;;;;;;;27.40;4.97;;;;;;;9.24;67.24;100224.44;5093903;28;20111;-64
2023/12/10 05:50:38;;;;;;;20.45;3.95;;;;;;;9.24;67.34;100216.94;5084043;28;20055;-64
2023/12/10 05:53:03;;;;;;;24.42;4.40;;;;;;;9.26;67.67;100192.59;5091712;28;20145;-65
2023/12/10 05:55:29;;;;;;;24.50;4.57;;;;;;;9.25;66.99;100215.00;5092224;28;20085;-65
2023/12/10 05:57:55;;;;;;;26.73;4.57;;;;;;;9.25;67.47;100221.38;5090525;28;20095;-64
2023/12/10 06:00:21;;;;;;;24.75;4.30;;;;;;;9.25;67.77;100231.63;5068105;28;20139;-65
2023/12/10 06:02:46;;;;;;;20.17;4.22;;;;;;;9.24;67.26;100241.03;5092220;28;20068;-64
2023/12/10 06:05:12;;;;;;;23.05;4.45;;;;;;;9.25;67.80;100232.47;5086199;28;20376;-64
2023/12/10 06:07:37;;;;;;;19.70;4.35;;;;;;;9.27;68.02;100240.50;5075969;28;20057;-65
2023/12/10 06:10:03;;;;;;;17.95;3.90;;;;;;;9.26;67.69;100233.28;5076889;28;20024;-65
2023/12/10 06:12:28;;;;;;;19.10;4.18;;;;;;;9.25;67.77;100260.16;5085183;28;20364;-65
2023/12/10 06:14:54;;;;;;;23.23;4.50;;;;;;;9.22;67.39;100260.66;5090577;28;20796;-65
2023/12/10 06:17:19;;;;;;;19.23;4.20;;;;;;;9.25;67.93;100262.94;5089310;28;20036;-65
2023/12/10 06:19:44;;;;;;;22.35;4.43;;;;;;;9.26;67.76;100258.22;5072827;28;20032;-65
2023/12/10 06:22:10;;;;;;;16.58;4.07;;;;;;;9.27;67.91;100269.03;5087211;28;20112;-65
2023/12/10 06:24:35;;;;;;;25.33;4.20;;;;;;;9.29;67.81;100269.63;5083705;28;20033;-65
2023/12/10 06:27:03;;;;;;;23.13;4.38;;;;;;;9.27;67.29;100269.03;5089359;28;20464;-65
2023/12/10 06:29:28;;;;;;;32.53;4.80;;;;;;;9.29;67.66;100300.06;5079789;28;20032;-65
2023/12/10 06:31:54;;;;;;;24.63;4.38;;;;;;;9.29;67.71;100285.41;5087342;28;20028;-66
2023/12/10 06:34:19;;;;;;;22.30;4.25;;;;;;;9.29;67.05;100315.88;5080585;28;20051;-65
2023/12/10 06:36:44;;;;;;;24.60;4.03;;;;;;;9.24;67.62;100324.94;5089849;28;20047;-64
2023/12/10 06:39:10;;;;;;;26.85;4.15;;;;;;;9.25;67.53;100328.56;5088970;28;20040;-65
2023/12/10 06:41:38;;;;;;;24.60;4.43;;;;;;;9.19;67.40;100322.09;5090288;28;20036;-64
2023/12/10 06:44:03;;;;;;;19.98;4.43;;;;;;;9.22;68.25;100331.81;5092873;28;20050;-65
2023/12/10 06:46:29;;;;;;;23.05;4.70;;;;;;;9.23;68.12;100337.09;5091086;28;20060;-65
2023/12/10 06:48:54;;;;;;;24.30;4.15;;;;;;;9.25;68.03;100346.00;5076015;28;20029;-65
2023/12/10 06:51:20;;;;;;;20.20;4.70;;;;;;;9.25;67.46;100348.78;5059092;28;20058;-65
2023/12/10 06:53:45;;;;;;;21.35;4.40;;;;;;;9.23;67.41;100355.66;5084789;28;20040;-65
2023/12/10 06:56:10;;;;;;;18.17;3.88;;;;;;;9.24;67.85;100358.19;5079994;28;20108;-64
2023/12/10 06:58:36;;;;;;;26.08;5.53;;;;;;;9.24;67.72;100355.41;5088381;28;20032;-65
2023/12/10 07:01:02;;;;;;;23.95;4.70;;;;;;;9.24;67.52;100362.88;5079250;28;20020;-65
2023/12/10 07:03:28;;;;;;;21.52;4.82;;;;;;;9.23;67.91;100386.09;5073625;28;20037;-65
2023/12/10 07:05:58;;;;;;;20.45;4.38;;;;;;;9.23;67.67;100363.97;5085317;28;20032;-64
2023/12/10 07:08:24;;;;;;;16.42;3.83;;;;;;;9.23;67.27;100362.03;5082092;28;20093;-65
2023/12/10 07:10:49;;;;;;;22.60;4.05;;;;;;;9.25;67.77;100383.94;5079981;28;20036;-65
2023/12/10 07:13:17;;;;;;;21.10;4.47;;;;;;;9.22;67.74;100385.28;5079715;28;20099;-65
2023/12/10 07:15:45;;;;;;;21.23;4.32;;;;;;;9.22;67.19;100368.66;5086743;28;20103;-66
2023/12/10 07:18:13;;;;;;;20.90;3.90;;;;;;;9.23;67.49;100380.56;5085338;28;20028;-66
2023/12/10 07:20:39;;;;;;;22.25;4.40;;;;;;;9.21;67.11;100391.91;5070926;28;20447;-66
2023/12/10 07:23:04;;;;;;;23.63;4.55;;;;;;;9.25;67.60;100404.16;5071911;28;20497;-65
2023/12/10 07:25:30;;;;;;;18.90;4.10;;;;;;;9.24;67.26;100409.97;5071207;28;20029;-65
2023/12/10 07:27:55;;;;;;;22.42;4.25;;;;;;;9.24;67.00;100413.56;5079900;28;20039;-66
2023/12/10 07:30:21;;;;;;;20.33;4.07;;;;;;;9.23;66.53;100411.88;5090023;28;20055;-66
2023/12/10 07:32:46;;;;;;;20.95;4.35;;;;;;;9.24;67.35;100441.25;5078656;28;20507;-66
2023/12/10 07:35:12;;;;;;;23.90;3.88;;;;;;;9.26;67.61;100432.69;5077064;28;20075;-66
2023/12/10 07:37:37;;;;;;;20.35;4.10;;;;;;;9.29;66.89;100444.09;5078450;28;20062;-66
2023/12/10 07:40:03;;;;;;;20.65;4.20;;;;;;;9.27;67.03;100446.25;5086913;28;20121;-66
2023/12/10 07:42:28;;;;;;;29.40;4.97;;;;;;;9.26;66.94;100457.59;5080077;28;20079;-66
2023/12/10 07:44:54;;;;;;;25.25;4.63;;;;;;;9.27;67.77;100448.19;5081744;28;20020;-66
2023/12/10 07:47:20;;;;;;;20.38;4.03;;;;;;;9.27;67.52;100456.50;5079712;28;20055;-65
2023/12/10 07:49:45;;;;;;;28.77;4.13;;;;;;;9.27;68.01;100460.13;5075460;28;20040;-66
2023/12/10 07:52:10;;;;;;;18.92;4.38;;;;;;;9.30;67.95;100473.47;5079739;28;20040;-66
2023/12/10 07:54:36;;;;;;;21.85;4.20;;;;;;;9.29;67.61;100482.03;5080894;28;20036;-65
2023/12/10 07:57:04;;;;;;;19.17;4.20;;;;;;;9.26;68.04;100471.44;5083037;28;20027;-65
2023/12/10 07:59:30;;;;;;;21.42;4.20;;;;;;;9.29;68.57;100484.81;5081695;28;20043;-63
2023/12/10 08:01:55;;;;;;;18.13;3.72;;;;;;;9.30;68.45;100478.16;5073961;28;20025;-66
2023/12/10 08:04:20;;;;;;;19.48;3.97;;;;;;;9.30;69.10;100479.00;5076414;28;20028;-67
2023/12/10 08:06:46;;;;;;;18.42;3.90;;;;;;;9.32;69.16;100495.38;5076664;28;20387;-65
2023/12/10 08:09:11;;;;;;;19.25;4.28;;;;;;;9.32;69.16;100485.13;5080656;28;20123;-66
2023/12/10 08:11:40;;;;;;;28.40;5.13;;;;;;;9.33;68.93;100491.50;5081026;28;20028;-65
2023/12/10 08:14:05;;;;;;;22.25;4.57;;;;;;;9.31;69.04;100493.69;5078588;28;20028;-66
2023/12/10 08:16:30;;;;;;;26.55;4.85;;;;;;;9.32;69.47;100500.91;5083355;28;20028;-66
2023/12/10 08:18:57;;;;;;;25.05;4.57;;;;;;;9.30;69.55;100495.63;5087525;28;20035;-66
2023/12/10 08:21:23;;;;;;;24.13;4.43;;;;;;;9.30;69.48;100511.41;5079921;28;20097;-66
2023/12/10 08:23:48;;;;;;;23.15;4.72;;;;;;;9.27;69.64;100503.59;5074293;28;20051;-65
2023/12/10 08:26:13;;;;;;;23.40;4.65;;;;;;;9.28;70.24;100508.06;5078537;28;20032;-64
2023/12/10 08:28:41;;;;;;;26.50;5.00;;;;;;;9.28;70.48;100530.22;5079578;28;20040;-62
2023/12/10 08:31:07;;;;;;;22.08;4.20;;;;;;;9.25;70.31;100530.72;5090486;28;20031;-65
2023/12/10 08:33:32;;;;;;;23.25;4.88;;;;;;;9.31;71.14;100524.16;5090529;28;20036;-64
2023/12/10 08:35:57;;;;;;;23.27;4.15;;;;;;;9.28;70.15;100532.97;5078910;28;20036;-65
2023/12/10 08:38:23;;;;;;;21.38;4.57;;;;;;;9.31;70.49;100543.53;5090421;28;20115;-65
2023/12/10 08:40:48;;;;;;;25.33;4.80;;;;;;;9.32;70.80;100537.75;5094971;28;20028;-67
2023/12/10 08:43:13;;;;;;;24.67;5.25;;;;;;;9.36;70.21;100545.56;5093803;28;20035;-66
2023/12/10 08:45:39;;;;;;;25.85;4.85;;;;;;;9.37;70.57;100544.47;5079288;28;20048;-67
2023/12/10 08:48:04;;;;;;;23.27;4.53;;;;;;;9.40;70.37;100543.97;5074829;28;20063;-65
2023/12/10 08:50:32;;;;;;;20.80;4.28;;;;;;;9.39;70.04;100550.56;5075033;28;20048;-68
2023/12/10 08:52:57;;;;;;;28.13;5.32;;;;;;;9.39;70.08;100545.03;5084427;28;20033;-67
2023/12/10 08:55:23;;;;;;;23.85;4.38;;;;;;;9.42;70.31;100550.91;5075843;28;20021;-67
2023/12/10 08:57:48;;;;;;;26.05;4.50;;;;;;;9.44;70.29;100553.44;5077493;28;20560;-67
2023/12/10 09:00:14;;;;;;;25.08;4.22;;;;;;;9.44;70.04;100562.59;5089338;28;20053;-67
2023/12/10 09:02:39;;;;;;;18.83;4.30;;;;;;;9.45;70.23;100561.50;5074889;28;20028;-68
2023/12/10 09:05:05;;;;;;;25.85;4.68;;;;;;;9.47;70.43;100572.31;5092152;28;20034;-66
2023/12/10 09:07:30;;;;;;;22.08;4.25;;;;;;;9.43;69.69;100563.69;5094625;28;20028;-68
2023/12/10 09:09:59;;;;;;;26.02;4.32;;;;;;;9.44;70.14;100565.38;5094951;28;20474;-68
2023/12/10 09:12:27;;;;;;;26.85;4.93;;;;;;;9.43;70.59;100571.16;5094994;28;20039;-66
2023/12/10 09:14:53;;;;;;;21.60;4.55;;;;;;;9.48;70.49;100571.25;5095047;28;20023;-66
2023/12/10 09:17:18;;;;;;;21.77;4.43;;;;;;;9.48;70.76;100568.47;5087762;28;20111;-66
2023/12/10 09:19:43;;;;;;;24.55;4.35;;;;;;;9.48;70.75;100579.56;5086546;28;20144;-66
2023/12/10 09:22:09;;;;;;;28.30;4.80;;;;;;;9.47;70.77;100581.50;5086798;28;20020;-66
2023/12/10 09:24:35;;;;;;;27.98;4.65;;;;;;;9.51;70.89;100576.25;5083291;28;20360;-66
2023/12/10 09:27:00;;;;;;;27.17;4.65;;;;;;;9.49;70.51;100579.28;5080613;28;20036;-66
2023/12/10 09:29:26;;;;;;;21.88;5.85;;;;;;;9.52;70.90;100584.34;5083977;28;20047;-67
2023/12/10 09:31:51;;;;;;;26.23;6.03;;;;;;;9.51;70.89;100582.66;5088035;28;20434;-66
2023/12/10 09:34:16;;;;;;;24.55;5.03;;;;;;;9.55;71.15;100586.59;5091417;28;20564;-67
2023/12/10 09:36:45;;;;;;;20.95;4.25;;;;;;;9.55;71.20;100578.28;5089621;28;20038;-66
2023/12/10 09:39:10;;;;;;;21.85;4.28;;;;;;;9.56;71.28;100582.72;5094543;28;20020;-66
2023/12/10 09:41:35;;;;;;;26.13;4.82;;;;;;;9.61;71.72;100583.91;5093780;28;20030;-66
2023/12/10 09:44:01;;;;;;;20.45;4.13;;;;;;;9.58;71.57;100586.06;5081986;28;20044;-65
2023/12/10 09:46:30;;;;;;;21.48;4.47;;;;;;;9.62;71.69;100594.72;5089250;28;20110;-66
2023/12/10 09:48:56;;;;;;;24.45;5.15;;;;;;;9.64;71.33;100592.56;5093114;28;20028;-66
2023/12/10 09:51:21;;;;;;;21.23;5.47;;;;;;;9.66;71.63;100592.28;5086449;28;20494;-65
2023/12/10 09:53:47;;;;;;;19.98;4.68;;;;;;;9.67;71.81;100582.88;5088959;28;20124;-66
2023/12/10 09:56:12;;;;;;;22.08;4.47;;;;;;;9.70;71.11;100577.66;5093631;28;20522;-66
2023/12/10 09:58:37;;;;;;;20.42;4.68;;;;;;;9.72;71.77;100591.28;5080862;28;20028;-65
2023/12/10 10:01:07;;;;;;;23.20;4.72;;;;;;;9.71;71.67;100584.06;5085541;28;20020;-66
2023/12/10 10:03:36;;;;;;;26.55;4.28;;;;;;;9.73;71.99;100587.41;5089266;28;20031;-66
2023/12/10 10:06:02;;;;;;;22.35;4.40;;;;;;;9.74;71.87;100583.53;5092862;28;20434;-66
2023/12/10 10:08:28;;;;;;;20.52;5.05;;;;;;;9.77;72.19;100580.28;5091829;28;20024;-66
2023/12/10 10:10:54;;;;;;;17.45;3.92;;;;;;;9.78;72.04;100587.47;5081496;28;20024;-66
2023/12/10 10:13:19;;;;;;;20.85;4.03;;;;;;;9.77;72.20;100589.41;5090550;28;20104;-66
2023/12/10 10:15:44;;;;;;;21.88;4.25;;;;;;;9.84;72.33;100583.72;5092803;28;20061;-66
2023/12/10 10:18:10;;;;;;;18.23;4.25;;;;;;;9.89;72.28;100580.16;5093198;28;20028;-66
2023/12/10 10:20:38;;;;;;;23.90;4.55;;;;;;;9.96;72.05;100572.50;5093314;28;20471;-67
2023/12/10 10:23:04;;;;;;;21.42;4.75;;;;;;;10.08;72.50;100562.97;5091755;28;20115;-66
2023/12/10 10:25:30;;;;;;;18.70;3.75;;;;;;;10.24;72.21;100566.78;5073286;28;20024;-66
2023/12/10 10:27:58;;;;;;;21.95;4.63;;;;;;;10.35;71.29;100565.00;5071867;28;20066;-66
2023/12/10 10:30:23;;;;;;;25.23;5.50;;;;;;;10.45;70.90;100562.38;5087761;28;20032;-66
2023/12/10 10:32:49;;;;;;;27.02;5.82;;;;;;;10.60;71.02;100563.63;5093309;28;20042;-66
2023/12/10 10:35:14;;;;;;;24.27;5.10;;;;;;;10.70;70.55;100586.78;5092840;28;20422;-66
2023/12/10 10:37:49;;;;;;;25.05;4.20;;;;;;;10.80;70.20;100580.50;5088711;28;20043;-66
2023/12/10 10:40:15;;;;;;;21.08;4.18;;;;;;;10.88;69.53;100577.25;5092169;28;20764;-66
2023/12/10 10:42:40;;;;;;;15.95;3.75;;;;;;;10.97;69.72;100572.91;5093040;28;20118;-66
2023/12/10 10:45:06;;;;;;;20.15;4.35;;;;;;;11.02;69.33;100578.50;5092099;28;20020;-66
2023/12/10 10:47:34;;;;;;;20.35;4.78;;;;;;;11.03;68.71;100576.56;5081557;28;20115;-66
2023/12/10 10:50:02;;;;;;;18.85;4.50;;;;;;;11.07;68.61;100586.88;5089947;28;20173;-66
2023/12/10 10:52:31;;;;;;;16.65;3.80;;;;;;;11.10;68.98;100584.69;5090844;28;20099;-66
2023/12/10 10:54:57;;;;;;;21.52;4.22;;;;;;;11.13;69.06;100578.63;5091987;28;20036;-66
2023/12/10 10:57:30;;;;;;;21.20;4.50;;;;;;;11.19;69.41;100569.22;5092966;28;20024;-66
2023/12/10 10:59:56;;;;;;;20.02;4.25;;;;;;;11.21;68.37;100559.53;5086542;28;20066;-65
2023/12/10 11:02:22;;;;;;;21.65;4.05;;;;;;;11.20;68.31;100566.19;5091233;28;20051;-66
2023/12/10 11:04:49;;;;;;;19.02;3.65;;;;;;;11.15;67.62;100576.41;5091749;28;20046;-66
2023/12/10 11:07:18;;;;;;;17.10;4.15;;;;;;;11.14;68.46;100581.13;5091872;28;20356;-66
2023/12/10 11:10:00;;;;;;;18.30;4.50;;;;;;;11.18;68.38;100573.09;5092261;28;20463;-66
2023/12/10 11:12:40;;;;;;;18.25;4.07;;;;;;;11.14;68.51;100563.63;5087011;28;20546;-66
2023/12/10 11:15:29;;;;;;;21.98;3.92;;;;;;;11.06;68.29;100557.44;5089305;28;20119;-65
2023/12/10 11:17:56;;;;;;;17.48;3.92;;;;;;;10.97;67.85;100550.69;5073782;28;20026;-67
2023/12/10 11:20:28;;;;;;;20.08;3.53;;;;;;;10.94;68.37;100554.00;5086861;28;20425;-67
2023/12/10 11:22:53;;;;;;;15.73;3.10;;;;;;;10.94;68.33;100550.38;5080362;28;20032;-67